Terminal Aerodrome Forecast
Issued by NWS

Home | Current Version | Previous Version | Text Only | Print | Product List | Glossary On
Versions: 1 2 3 4 5 6 7 8 9 10 11 12 13 14 15
000
FTUS45 KRIW 222325
TAFJAC
TAF
KJAC 222325Z 2300/2324 17006KT P6SM VCSH SCT028 BKN040
     FM230500 36006KT P6SM VCSH SCT030 BKN045
     FM231600 36012G18KT P6SM VCSH SCT020 BKN030
      AMD LTD TO CLD VIS AND WIND=

USA.gov is the U.S. government's official web portal to all federal, state and local government web resources and services.